Time;durP1;ratioP1;P1;durP2;ratioP2;P2;SDS_P1;SDS_P2;PMS_P1;PMS_P2;Temp;Humidity;BMP_temperature;BMP_pressure;BME280_temperature;BME280_humidity;BME280_pressure;Samples;Min_cycle;Max_cycle;Signal;HPM_P1;HPM_P2
2022/06/25 00:04:00;;;;;;;14.52;12.20;;;;;;;16.17;100.00;100729.69;10091391;29;20127;-88
2022/06/25 00:09:03;;;;;;;15.50;13.98;;;;;;;16.34;100.00;100763.38;10068397;29;20020;-88
2022/06/25 00:14:11;;;;;;;16.52;14.82;;;;;;;14.92;100.00;100578.56;10090334;29;20401;-88
2022/06/25 00:19:14;;;;;;;17.95;16.00;;;;;;;16.03;100.00;100774.00;10010172;29;20057;-89
2022/06/25 00:24:20;;;;;;;19.55;16.55;;;;;;;16.48;100.00;100857.97;10077996;28;20045;-87
2022/06/25 00:29:33;;;;;;;20.83;17.15;;;;;;;15.09;100.00;100637.22;9994714;29;20048;-89
2022/06/25 00:34:38;;;;;;;21.42;17.50;;;;;;;15.74;100.00;100758.97;10054285;29;20055;-89
2022/06/25 00:40:11;;;;;;;21.20;18.75;;;;;;;14.90;100.00;100630.69;9982464;29;20052;-89
2022/06/25 00:45:17;;;;;;;21.83;18.52;;;;;;;16.28;100.00;100854.25;10050725;29;20029;-89
2022/06/25 00:50:23;;;;;;;24.38;20.40;;;;;;;15.83;100.00;100798.03;10095651;29;20067;-86
2022/06/25 00:55:36;;;;;;;25.60;20.15;;;;;;;14.87;100.00;100642.38;10091141;28;20044;-89
2022/06/25 01:00:42;;;;;;;24.50;19.40;;;;;;;15.10;100.00;100697.09;10087267;29;20110;-88
2022/06/25 01:05:43;;;;;;;;;;;;;;;16.07;100.00;100861.16;10079131;29;20512;-89
2022/06/25 01:11:07;;;;;;;24.15;19.75;;;;;;;14.71;100.00;100655.50;10088226;29;19911;-89
2022/06/25 01:16:22;;;;;;;24.27;20.38;;;;;;;15.58;100.00;100801.84;10050658;29;20145;-87
2022/06/25 01:21:26;;;;;;;27.42;21.15;;;;;;;14.51;100.00;100670.28;9984244;29;20124;-87
2022/06/25 01:26:36;;;;;;;25.83;21.48;;;;;;;13.99;100.00;100572.81;10074484;29;20064;-88
2022/06/25 01:31:37;;;;;;;29.00;22.00;;;;;;;13.92;100.00;100583.38;10040691;29;20048;-89
2022/06/25 01:36:39;;;;;;;29.98;23.02;;;;;;;15.23;100.00;100823.16;10024995;29;20074;-89
2022/06/25 01:41:47;;;;;;;25.85;22.60;;;;;;;14.86;100.00;100749.66;10041539;28;20036;-88
2022/06/25 01:46:51;;;;;;;29.50;23.42;;;;;;;15.12;100.00;100774.44;10070969;29;20036;-87
2022/06/25 01:51:59;;;;;;;27.50;21.67;;;;;;;15.71;100.00;100908.59;10137044;28;20063;-88
2022/06/25 01:57:18;;;;;;;27.35;21.75;;;;;;;14.78;100.00;100760.50;10062189;28;20032;-88
2022/06/25 02:02:19;;;;;;;28.77;23.08;;;;;;;13.75;100.00;100616.94;10070232;29;20041;-88
2022/06/25 02:07:32;;;;;;;;;;;;;;;;;;;;;
2022/06/25 02:12:36;;;;;;;29.83;23.38;;;;;;;13.49;100.00;100569.97;10062237;29;20048;-87
2022/06/25 02:17:40;;;;;;;;;;;;;;;15.40;100.00;100900.47;10069710;29;20119;-89
2022/06/25 02:22:46;;;;;;;34.13;25.60;;;;;;;15.20;100.00;100873.66;10021269;29;19911;-89
2022/06/25 02:27:50;;;;;;;34.83;27.98;;;;;;;13.71;100.00;100644.31;10044845;29;20173;-88
2022/06/25 02:33:00;;;;;;;37.00;29.88;;;;;;;14.24;100.00;100717.75;10037474;29;20103;-88
2022/06/25 02:43:53;;;;;;;;;;;;;;;;;;;;;
2022/06/25 02:49:02;;;;;;;45.65;32.38;;;;;;;13.97;100.00;100701.53;10077065;29;20120;-89
2022/06/25 02:54:10;;;;;;;40.88;30.50;;;;;;;14.07;100.00;100754.91;10014893;29;20054;-89
2022/06/25 02:59:12;;;;;;;40.17;31.05;;;;;;;15.28;100.00;100916.63;10009072;29;20116;-88
2022/06/25 03:04:26;;;;;;;40.50;32.33;;;;;;;14.53;100.00;100829.56;10012064;29;20036;-88
2022/06/25 03:09:28;;;;;;;39.13;30.90;;;;;;;13.82;100.00;100728.13;10037173;29;20044;-89
2022/06/25 03:14:29;;;;;;;42.47;32.80;;;;;;;13.93;100.00;100740.84;10061455;29;20055;-90
2022/06/25 03:19:33;;;;;;;44.03;34.15;;;;;;;13.39;100.00;100680.59;10080044;29;20043;-90
2022/06/25 03:24:40;;;;;;;44.40;32.45;;;;;;;13.28;100.00;100660.41;10039432;29;20043;-91
2022/06/25 03:29:41;;;;;;;46.50;32.42;;;;;;;13.38;100.00;100678.16;10069961;29;20052;-91
2022/06/25 03:34:56;;;;;;;51.50;36.13;;;;;;;14.61;100.00;100894.66;10043799;29;20044;-90
2022/06/25 03:40:21;;;;;;;54.63;35.92;;;;;;;14.46;100.00;100861.44;10035349;29;20047;-91
2022/06/25 03:45:23;;;;;;;50.00;35.08;;;;;;;14.91;100.00;100938.09;10070436;29;20056;-91
2022/06/25 03:50:27;;;;;;;50.33;36.17;;;;;;;14.88;100.00;100943.38;10076805;29;20075;-90
2022/06/25 04:01:28;;;;;;;;;;;;;;;;;;;;;
2022/06/25 04:06:38;;;;;;;50.25;36.33;;;;;;;14.94;100.00;100900.66;10061262;29;20025;-91
2022/06/25 04:11:42;;;;;;;50.38;35.92;;;;;;;14.87;100.00;100891.84;10054694;29;20033;-89
2022/06/25 04:17:35;;;;;;;;;;;;;;;;;;;;;
2022/06/25 04:22:56;;;;;;;49.30;35.65;;;;;;;15.12;100.00;100919.44;10009625;29;20048;-89
2022/06/25 04:33:23;;;;;;;46.67;34.78;;;;;;;14.97;100.00;100891.81;10069763;28;20179;-89
2022/06/25 04:38:44;;;;;;;43.53;34.90;;;;;;;14.71;100.00;100861.38;10033668;29;20048;-89
2022/06/25 04:43:57;;;;;;;47.42;34.03;;;;;;;15.00;100.00;100899.53;10100715;28;20122;-89
2022/06/25 04:49:01;;;;;;;44.33;33.47;;;;;;;14.02;100.00;100737.50;10047029;28;20054;-89
2022/06/25 04:54:36;;;;;;;48.55;33.88;;;;;;;15.32;100.00;100917.72;10111533;28;20055;-89
2022/06/25 05:05:52;;;;;;;42.42;31.83;;;;;;;14.48;100.00;100748.41;10064553;29;20627;-89
2022/06/25 05:11:10;;;;;;;41.25;29.75;;;;;;;14.74;100.00;100793.50;10080096;29;20029;-90
2022/06/25 05:16:46;;;;;;;;;;;;;;;;;;;;;
2022/06/25 05:27:27;;;;;;;32.70;27.92;;;;;;;16.58;100.00;101034.88;9873293;29;20181;-89
2022/06/25 05:33:15;;;;;;;31.08;26.45;;;;;;;15.01;100.00;100762.59;9888399;29;20052;-88
2022/06/25 05:38:19;;;;;;;27.55;23.63;;;;;;;16.52;100.00;101003.56;9996246;29;20037;-90
2022/06/25 05:43:30;;;;;;;31.42;22.77;;;;;;;16.70;100.00;101005.59;9984330;29;20036;-87
2022/06/25 05:48:40;;;;;;;22.48;20.08;;;;;;;17.18;100.00;101059.66;10026302;29;20037;-89
2022/06/25 05:54:37;;;;;;;22.10;19.70;;;;;;;17.19;100.00;101011.25;9996336;29;20043;-90
2022/06/25 05:59:51;;;;;;;15.70;13.82;;;;;;;17.55;100.00;101020.00;10033677;29;20516;-90
2022/06/25 06:05:21;;;;;;;14.88;13.38;;;;;;;17.52;100.00;100981.63;10052663;29;20096;-89
2022/06/25 06:10:36;;;;;;;12.98;11.63;;;;;;;18.03;100.00;100982.91;9992268;29;20048;-90
2022/06/25 06:16:16;;;;;;;;;;;;;;;;;;;;;
2022/06/25 06:21:20;;;;;;;12.57;10.88;;;;;;;18.00;100.00;100869.28;10077519;29;20039;-91
2022/06/25 06:26:20;;;;;;;10.52;9.45;;;;;;;18.32;100.00;100904.66;10084545;29;20032;-90
2022/06/25 06:31:21;;;;;;;12.00;9.35;;;;;;;18.46;100.00;100848.94;10104474;29;20508;-90
2022/06/25 06:36:22;;;;;;;9.85;8.55;;;;;;;18.78;100.00;100863.94;10098778;29;20047;-89
2022/06/25 06:41:25;;;;;;;8.68;7.07;;;;;;;19.54;100.00;100923.72;10112161;29;20048;-90
2022/06/25 06:46:28;;;;;;;9.40;6.72;;;;;;;19.30;100.00;100840.22;10061528;29;20107;-91
2022/06/25 06:51:29;;;;;;;9.48;6.45;;;;;;;20.24;100.00;100994.22;10075030;29;20028;-90
2022/06/25 06:56:37;;;;;;;12.18;7.07;;;;;;;20.10;100.00;100962.69;10036957;29;20485;-90
2022/06/25 07:01:41;;;;;;;10.05;6.43;;;;;;;20.15;100.00;100956.97;10087038;29;20029;-89
2022/06/25 07:06:41;;;;;;;8.48;6.38;;;;;;;20.80;100.00;101094.69;10096495;29;20108;-88
2022/06/25 07:11:44;;;;;;;8.20;5.70;;;;;;;19.88;100.00;100928.00;10047725;29;20623;-92
2022/06/25 07:16:45;;;;;;;11.40;6.22;;;;;;;20.23;100.00;100944.22;10049562;29;20035;-88
2022/06/25 07:21:49;;;;;;;11.43;6.38;;;;;;;20.90;100.00;101005.72;10033375;29;20036;-93
2022/06/25 07:27:02;;;;;;;8.18;4.63;;;;;;;21.18;100.00;100980.28;10077051;29;20123;-89
2022/06/25 07:32:06;;;;;;;5.40;4.20;;;;;;;21.99;100.00;101090.31;10080856;29;20126;-94
2022/06/25 07:38:25;;;;;;;;;;;;;;;;;;;;;
2022/06/25 08:01:20;;;;;;;6.32;3.60;;;;;;;22.44;100.00;101078.84;10123020;23;20074;-65
2022/06/25 08:06:21;;;;;;;9.15;3.95;;;;;;;22.67;100.00;101083.13;10238759;28;20072;-65
2022/06/25 08:11:21;;;;;;;5.20;2.83;;;;;;;22.42;100.00;101089.59;10240947;28;20055;-65
2022/06/25 08:16:24;;;;;;;6.05;3.00;;;;;;;22.50;100.00;101085.94;10244856;28;20492;-64
2022/06/25 08:21:24;;;;;;;5.07;2.50;;;;;;;22.83;100.00;101085.44;10236776;28;20051;-65
2022/06/25 08:26:25;;;;;;;3.80;2.70;;;;;;;23.05;100.00;101079.66;10220808;28;20044;-65
2022/06/25 08:31:25;;;;;;;3.25;2.40;;;;;;;23.32;100.00;101084.03;10223426;28;20036;-65
2022/06/25 08:36:25;;;;;;;5.07;2.28;;;;;;;23.45;100.00;101086.94;10222149;28;20068;-64
2022/06/25 08:41:26;;;;;;;3.95;2.20;;;;;;;23.46;100.00;101097.00;10221326;28;20039;-64
2022/06/25 08:46:27;;;;;;;5.00;2.85;;;;;;;23.54;100.00;101085.75;10199462;28;20067;-64
2022/06/25 08:51:28;;;;;;;3.70;1.90;;;;;;;23.63;100.00;101084.91;10221054;28;20507;-64
2022/06/25 08:56:29;;;;;;;5.18;2.00;;;;;;;23.54;100.00;101084.91;10207516;28;20048;-65
2022/06/25 09:01:29;;;;;;;4.82;1.70;;;;;;;23.08;100.00;101000.34;10163046;29;20044;-64
2022/06/25 09:06:29;;;;;;;2.95;1.50;;;;;;;23.53;100.00;101088.91;10180916;29;20032;-65
2022/06/25 09:11:30;;;;;;;3.05;1.40;;;;;;;23.78;100.00;101089.97;10187507;28;20068;-64
2022/06/25 09:16:30;;;;;;;5.07;2.20;;;;;;;23.83;100.00;101081.31;10189869;28;20063;-63
2022/06/25 09:21:40;;;;;;;5.18;1.33;;;;;;;24.20;100.00;101089.22;10181807;29;20068;-65
2022/06/25 09:26:50;;;;;;;5.82;1.92;;;;;;;24.80;100.00;101089.91;10181328;29;20056;-65
2022/06/25 09:31:50;;;;;;;4.82;1.40;;;;;;;25.03;97.25;101081.88;10190550;28;20416;-64
2022/06/25 09:36:50;;;;;;;2.83;1.70;;;;;;;24.84;97.05;101085.22;10220596;28;20040;-65
2022/06/25 09:41:53;;;;;;;4.60;1.83;;;;;;;24.33;98.63;101094.56;10200172;28;20059;-62
2022/06/25 09:46:57;;;;;;;5.30;1.67;;;;;;;24.69;99.30;101101.59;10180178;29;20040;-62
2022/06/25 09:52:01;;;;;;;2.97;1.40;;;;;;;25.20;94.14;101070.44;10179657;29;20321;-62
2022/06/25 09:57:02;;;;;;;5.32;1.40;;;;;;;25.57;89.95;101074.13;10180701;29;20032;-63
2022/06/25 10:02:03;;;;;;;3.13;1.38;;;;;;;25.63;91.60;101085.16;10188475;28;20071;-64
2022/06/25 10:07:07;;;;;;;4.75;1.60;;;;;;;25.23;88.29;101080.19;10219627;28;20119;-64
2022/06/25 10:12:08;;;;;;;2.58;1.30;;;;;;;25.35;89.11;101081.03;10220292;28;20131;-64
2022/06/25 10:17:09;;;;;;;2.45;1.80;;;;;;;25.68;89.29;101090.59;10218035;28;20039;-64
2022/06/25 10:22:09;;;;;;;4.47;1.70;;;;;;;25.33;89.57;101091.03;10218159;28;20050;-65
2022/06/25 10:27:09;;;;;;;5.03;1.80;;;;;;;25.62;90.92;101097.63;10202062;28;20063;-64
2022/06/25 10:32:17;;;;;;;3.45;1.40;;;;;;;25.82;93.80;101099.50;10179588;29;20040;-65
2022/06/25 10:37:19;;;;;;;4.88;2.25;;;;;;;26.43;87.16;101080.88;10177410;29;20044;-65
2022/06/25 10:47:39;;;;;;;5.60;1.40;;;;;;;26.62;79.39;101061.28;10177041;29;20045;-65
2022/06/25 10:52:39;;;;;;;4.70;1.58;;;;;;;26.24;84.04;101087.16;10176245;29;20040;-64
2022/06/25 10:57:40;;;;;;;5.07;1.42;;;;;;;26.02;84.69;101094.13;10174543;29;20036;-65
2022/06/25 11:02:40;;;;;;;5.57;1.60;;;;;;;26.32;84.72;101091.84;10179334;28;20493;-65
2022/06/25 11:07:41;;;;;;;2.58;1.60;;;;;;;26.44;81.61;101076.84;10214914;28;20136;-64
2022/06/25 11:12:41;;;;;;;3.20;2.10;;;;;;;26.46;84.89;101089.44;10208919;28;20048;-65
2022/06/25 11:17:43;;;;;;;7.32;2.00;;;;;;;26.55;81.98;101073.16;10158871;29;20032;-65
2022/06/25 11:22:47;;;;;;;2.97;1.60;;;;;;;26.62;82.09;101091.53;10176246;29;20123;-65
2022/06/25 11:33:09;;;;;;;4.47;1.40;;;;;;;27.35;78.77;101068.56;10175982;29;20072;-64
2022/06/25 11:38:28;;;;;;;2.20;1.40;;;;;;;27.56;78.60;101067.47;10181862;29;20083;-64
2022/06/25 11:43:28;;;;;;;6.05;2.10;;;;;;;27.67;77.14;101074.19;10197732;28;20393;-65
2022/06/25 11:48:31;;;;;;;2.75;1.30;;;;;;;28.37;78.57;101070.56;10182091;28;20032;-62
2022/06/25 11:53:35;;;;;;;3.60;1.40;;;;;;;28.78;73.01;101065.38;10188134;28;20044;-63
2022/06/25 11:58:35;;;;;;;3.17;1.40;;;;;;;29.37;74.49;101068.09;10246942;28;20035;-64
2022/06/25 12:03:36;;;;;;;5.30;1.23;;;;;;;29.45;67.54;101050.00;10195973;28;20703;-67
2022/06/25 12:08:36;;;;;;;2.13;1.25;;;;;;;29.45;67.39;101041.50;10181706;29;20493;-65
2022/06/25 12:13:37;;;;;;;5.35;1.45;;;;;;;29.54;65.85;101046.91;10186591;28;20501;-66
2022/06/25 12:18:39;;;;;;;1.60;1.15;;;;;;;29.96;67.36;101045.97;10185739;28;20035;-65
2022/06/25 12:23:53;;;;;;;4.57;1.42;;;;;;;29.91;64.35;101041.47;10213189;28;20047;-64
2022/06/25 12:29:07;;;;;;;3.33;0.90;;;;;;;29.85;61.29;101028.81;10221072;28;20064;-64
2022/06/25 12:34:08;;;;;;;3.90;1.00;;;;;;;30.28;63.44;101043.56;10219874;28;20518;-63
2022/06/25 12:39:31;;;;;;;4.07;1.38;;;;;;;30.97;60.18;101011.16;10219920;28;20052;-64
2022/06/25 12:44:34;;;;;;;4.18;1.00;;;;;;;31.55;57.99;101021.81;10217071;28;20109;-64
2022/06/25 12:49:56;;;;;;;2.22;1.15;;;;;;;31.65;55.09;101013.75;10218917;28;20038;-65
2022/06/25 12:54:57;;;;;;;3.08;1.05;;;;;;;31.61;58.55;101036.50;10218854;28;20063;-63
2022/06/25 13:00:02;;;;;;;3.78;0.77;;;;;;;31.87;55.27;101021.22;10217567;28;20107;-64
2022/06/25 13:05:03;;;;;;;4.78;1.40;;;;;;;32.13;56.52;101034.41;10178568;29;20036;-65
2022/06/25 13:10:04;;;;;;;3.15;1.00;;;;;;;31.71;52.56;101026.38;10177632;29;20032;-64
2022/06/25 13:15:06;;;;;;;2.15;0.90;;;;;;;30.54;56.91;101050.44;10179133;29;20051;-64
2022/06/25 13:20:07;;;;;;;3.08;1.05;;;;;;;29.89;59.71;101060.91;10179866;28;20060;-71
2022/06/25 13:25:09;;;;;;;3.75;0.88;;;;;;;28.37;62.95;101075.44;10178878;29;20043;-71
2022/06/25 13:30:10;;;;;;;3.75;0.70;;;;;;;27.43;65.44;101080.88;10177110;29;20052;-68
2022/06/25 13:35:10;;;;;;;1.83;0.90;;;;;;;26.40;70.91;101078.75;10177870;29;20079;-70
2022/06/25 13:40:12;;;;;;;3.50;1.00;;;;;;;26.00;76.48;101133.94;10177839;29;20057;-69
2022/06/25 13:45:12;;;;;;;3.38;1.10;;;;;;;25.51;80.56;101140.38;10220470;28;20043;-66
2022/06/25 13:50:12;;;;;;;3.67;1.67;;;;;;;25.14;83.41;101150.69;10216239;28;20032;-70
2022/06/25 13:55:13;;;;;;;4.47;1.30;;;;;;;26.14;81.07;101142.06;10215260;28;20067;-73
2022/06/25 14:00:14;;;;;;;2.03;1.20;;;;;;;26.89;77.08;101135.91;10191631;28;20121;-69
2022/06/25 14:05:14;;;;;;;3.97;1.20;;;;;;;26.88;80.85;101141.91;10216522;28;20050;-69
2022/06/25 14:10:16;;;;;;;4.43;1.70;;;;;;;26.26;82.42;101147.69;10215742;28;20051;-69
2022/06/25 14:15:16;;;;;;;2.95;1.05;;;;;;;25.53;85.12;101160.59;10216011;28;20039;-68
2022/06/25 14:20:17;;;;;;;3.70;1.40;;;;;;;25.09;89.61;101171.44;10195605;28;20048;-69
2022/06/25 14:25:20;;;;;;;1.30;1.20;;;;;;;24.59;92.36;101163.13;10177896;29;20032;-68
2022/06/25 14:30:21;;;;;;;3.55;1.20;;;;;;;24.20;96.10;101163.16;10177686;29;20043;-68
2022/06/25 14:35:21;;;;;;;4.55;1.40;;;;;;;23.66;97.02;101120.75;10176930;29;20047;-69
2022/06/25 14:42:20;;;;;;;2.13;1.30;;;;;;;23.55;99.33;101159.66;10177281;28;20036;-68
2022/06/25 14:46:00;;;;;;;2.78;1.38;;;;;;;23.33;100.00;101163.50;10176897;29;20524;-68
2022/06/25 14:51:01;;;;;;;5.47;1.15;;;;;;;23.16;100.00;101162.38;10177659;29;20041;-68
2022/06/25 14:56:01;;;;;;;3.38;1.80;;;;;;;23.22;100.00;101145.38;10205158;28;20039;-68
2022/06/25 15:01:02;;;;;;;4.20;1.85;;;;;;;23.58;100.00;101158.97;10215453;28;20500;-69
2022/06/25 15:06:03;;;;;;;4.78;1.75;;;;;;;23.72;100.00;101156.75;10184172;29;20509;-69
2022/06/25 15:11:03;;;;;;;7.97;1.70;;;;;;;23.92;100.00;101151.59;10178095;29;20107;-69
2022/06/25 15:16:04;;;;;;;4.53;2.20;;;;;;;24.09;100.00;101133.78;10183433;28;20044;-70
2022/06/25 15:21:05;;;;;;;6.20;1.50;;;;;;;23.94;100.00;101099.47;10182233;29;20051;-68
2022/06/25 15:26:05;;;;;;;3.42;1.25;;;;;;;24.48;100.00;101128.91;10183817;29;20037;-69
2022/06/25 15:31:05;;;;;;;4.72;1.10;;;;;;;24.21;100.00;101035.41;10183039;28;20051;-68
2022/06/25 15:36:06;;;;;;;4.82;1.20;;;;;;;25.02;95.80;101128.13;10185738;28;20047;-69
2022/06/25 15:41:08;;;;;;;4.90;1.55;;;;;;;25.14;96.26;101128.16;10199929;28;20032;-68
2022/06/25 15:46:08;;;;;;;9.07;2.40;;;;;;;25.44;96.17;101120.38;10220278;28;20044;-69
2022/06/25 15:51:08;;;;;;;4.57;2.40;;;;;;;25.89;96.56;101122.31;10221841;28;20042;-68
2022/06/25 15:56:09;;;;;;;5.00;2.08;;;;;;;27.50;89.05;101100.84;10220995;28;20054;-68
2022/06/25 16:01:09;;;;;;;4.40;2.03;;;;;;;29.17;80.71;101085.19;10220564;28;20063;-69
2022/06/25 16:06:10;;;;;;;4.15;2.03;;;;;;;30.10;75.08;101079.44;10220416;28;20047;-69
2022/06/25 16:16:30;;;;;;;6.80;1.83;;;;;;;29.72;74.70;101075.59;10218936;28;20040;-70
2022/06/25 16:21:31;;;;;;;6.40;1.95;;;;;;;29.64;77.58;101085.97;10220146;28;20032;-71
2022/06/25 16:26:31;;;;;;;5.68;1.60;;;;;;;29.66;75.34;101082.78;10218185;28;20042;-70
2022/06/25 16:31:32;;;;;;;7.97;2.05;;;;;;;29.28;75.81;101084.56;10219370;28;20035;-70
2022/06/25 16:36:33;;;;;;;8.02;1.77;;;;;;;28.92;77.07;101079.03;10217540;28;20040;-70
2022/06/25 16:41:34;;;;;;;3.85;1.70;;;;;;;28.48;76.76;101079.28;10219362;28;20043;-69
2022/06/25 16:46:36;;;;;;;2.70;1.58;;;;;;;27.58;81.32;101094.19;10219235;28;20050;-69
2022/06/25 16:51:38;;;;;;;2.97;1.40;;;;;;;27.33;82.96;101085.06;10218978;28;20059;-69
2022/06/25 16:56:39;;;;;;;5.20;1.98;;;;;;;27.03;84.14;101087.44;10216716;28;20496;-69
2022/06/25 17:01:40;;;;;;;5.28;1.50;;;;;;;26.64;85.09;101086.34;10197069;28;20040;-69
2022/06/25 17:06:40;;;;;;;8.25;2.10;;;;;;;26.33;87.94;101088.63;10218248;28;20039;-69
2022/06/25 17:11:41;;;;;;;6.78;2.05;;;;;;;26.12;92.22;101099.28;10199592;28;20035;-68
2022/06/25 17:16:41;;;;;;;8.13;2.55;;;;;;;25.64;95.68;101104.56;10213089;28;20054;-69
2022/06/25 17:21:42;;;;;;;8.18;2.22;;;;;;;24.89;100.00;101113.19;10216038;28;20039;-69
2022/06/25 17:26:42;;;;;;;9.43;3.38;;;;;;;24.74;100.00;101111.81;10217414;28;20040;-67
2022/06/25 17:31:43;;;;;;;7.47;2.67;;;;;;;24.36;100.00;101119.19;10217688;28;20051;-69
2022/06/25 17:36:43;;;;;;;8.88;2.88;;;;;;;23.79;100.00;101130.94;10216338;28;20032;-68
2022/06/25 17:41:44;;;;;;;4.75;2.63;;;;;;;23.48;100.00;101137.69;10217464;28;20065;-69
2022/06/25 17:46:44;;;;;;;5.93;2.88;;;;;;;23.34;100.00;101131.44;10216437;28;20046;-68
2022/06/25 17:51:45;;;;;;;7.85;3.03;;;;;;;23.00;100.00;101133.13;10216560;28;20043;-68
2022/06/25 17:56:45;;;;;;;5.10;3.33;;;;;;;22.93;100.00;101133.63;10216045;28;20039;-69
2022/06/25 18:01:46;;;;;;;7.40;3.30;;;;;;;22.69;100.00;101139.75;10215760;28;20039;-69
2022/06/25 18:06:46;;;;;;;8.32;4.18;;;;;;;22.52;100.00;101134.97;10214225;28;20126;-69
2022/06/25 18:11:47;;;;;;;6.35;3.08;;;;;;;22.52;100.00;101137.78;10216202;28;20071;-69
2022/06/25 18:16:47;;;;;;;9.57;3.05;;;;;;;22.38;100.00;101122.25;10216663;28;20043;-70
2022/06/25 18:21:48;;;;;;;6.97;3.33;;;;;;;22.33;100.00;101146.50;10215116;28;20145;-71
2022/06/25 18:26:48;;;;;;;8.73;3.80;;;;;;;22.09;100.00;101138.50;10183120;28;20044;-70
2022/06/25 18:31:49;;;;;;;8.02;4.00;;;;;;;21.90;100.00;101141.56;10175917;29;20441;-69
2022/06/25 18:36:49;;;;;;;5.93;3.40;;;;;;;21.84;100.00;101142.88;10174525;29;20139;-70
2022/06/25 18:41:50;;;;;;;15.30;4.18;;;;;;;21.75;100.00;101142.03;10201024;28;20044;-68
2022/06/25 18:46:51;;;;;;;11.82;3.83;;;;;;;21.59;100.00;101141.63;10221825;28;20039;-69
2022/06/25 18:51:51;;;;;;;8.48;3.80;;;;;;;21.42;100.00;101135.91;10222324;28;20497;-70
2022/06/25 18:56:52;;;;;;;7.57;3.20;;;;;;;21.28;100.00;101138.78;10203196;28;20051;-69
2022/06/25 19:01:52;;;;;;;8.30;4.13;;;;;;;21.16;100.00;101137.38;10183087;28;20047;-69
2022/06/25 19:06:53;;;;;;;5.00;3.42;;;;;;;21.08;100.00;101135.38;10183331;29;20047;-70
2022/06/25 19:11:55;;;;;;;9.27;4.43;;;;;;;20.97;100.00;101136.78;10184073;29;20386;-65
2022/06/25 19:16:55;;;;;;;8.00;3.17;;;;;;;20.86;100.00;101141.00;10184276;29;20595;-65
2022/06/25 19:21:56;;;;;;;10.07;4.40;;;;;;;20.80;100.00;101148.69;10183612;28;20088;-65
2022/06/25 19:26:56;;;;;;;5.72;4.40;;;;;;;20.73;100.00;101148.28;10198961;28;20027;-66
2022/06/25 19:31:57;;;;;;;5.18;4.13;;;;;;;20.66;100.00;101159.09;10221726;28;20060;-65
2022/06/25 19:36:57;;;;;;;6.57;3.22;;;;;;;20.61;100.00;101162.84;10222414;28;20035;-64
2022/06/25 19:41:58;;;;;;;8.88;4.70;;;;;;;20.54;100.00;101154.81;10222136;28;20048;-65
2022/06/25 19:46:58;;;;;;;11.18;5.38;;;;;;;20.50;100.00;101158.56;10222158;28;20039;-65
2022/06/25 19:51:59;;;;;;;12.55;5.05;;;;;;;20.40;100.00;101151.25;10221481;28;20031;-65
2022/06/25 19:56:59;;;;;;;10.77;4.20;;;;;;;20.31;100.00;101153.94;10220700;28;20051;-65
2022/06/25 20:01:59;;;;;;;10.50;4.80;;;;;;;20.27;100.00;101163.28;10221046;28;20062;-65
2022/06/25 20:07:00;;;;;;;6.60;4.88;;;;;;;20.17;100.00;101158.72;10219476;28;20043;-64
2022/06/25 20:12:00;;;;;;;6.28;4.32;;;;;;;20.12;100.00;101161.66;10220250;28;20039;-65
2022/06/25 20:17:01;;;;;;;10.38;4.15;;;;;;;20.08;100.00;101161.44;10219552;28;20051;-66
2022/06/25 20:22:04;;;;;;;9.55;6.05;;;;;;;20.06;100.00;101162.91;10217705;28;20512;-65
2022/06/25 20:27:05;;;;;;;7.70;6.13;;;;;;;19.99;100.00;101134.53;10219195;28;20059;-66
2022/06/25 20:32:05;;;;;;;11.75;5.63;;;;;;;20.05;100.00;101156.50;10194619;28;20047;-65
2022/06/25 20:37:06;;;;;;;9.90;6.22;;;;;;;20.01;100.00;101160.19;10192064;28;20101;-66
2022/06/25 20:42:07;;;;;;;7.72;6.20;;;;;;;19.99;100.00;101162.47;10219787;28;20039;-66
2022/06/25 20:47:07;;;;;;;9.07;5.28;;;;;;;19.91;100.00;101150.91;10184722;28;20040;-65
2022/06/25 20:52:07;;;;;;;7.15;5.28;;;;;;;19.81;100.00;101134.34;10209657;28;20155;-65
2022/06/25 20:57:08;;;;;;;6.20;5.60;;;;;;;19.80;100.00;101143.03;10214749;28;20035;-64
2022/06/25 21:02:09;;;;;;;9.27;6.18;;;;;;;19.67;100.00;101151.06;10222504;28;20396;-66
2022/06/25 21:12:28;;;;;;;8.80;6.32;;;;;;;19.38;100.00;101109.44;10217587;28;20083;-65
2022/06/25 21:17:29;;;;;;;10.05;5.45;;;;;;;19.40;100.00;101126.72;10217215;28;20127;-65
2022/06/25 21:22:29;;;;;;;10.00;6.57;;;;;;;19.33;100.00;101126.31;10216813;28;20028;-66
2022/06/25 21:27:30;;;;;;;9.65;6.43;;;;;;;19.27;100.00;101130.34;10214432;28;20039;-66
2022/06/25 21:32:30;;;;;;;12.48;6.60;;;;;;;19.23;100.00;101137.66;10216089;28;20055;-65
2022/06/25 21:37:30;;;;;;;12.18;7.45;;;;;;;19.18;100.00;101134.94;10215485;28;20036;-65
2022/06/25 21:42:31;;;;;;;11.88;7.18;;;;;;;19.12;100.00;101139.78;10191898;28;20058;-65
2022/06/25 21:47:31;;;;;;;9.68;7.50;;;;;;;19.08;100.00;101135.94;10175568;28;20091;-65
2022/06/25 21:52:32;;;;;;;9.95;7.68;;;;;;;19.03;100.00;101136.03;10214627;28;20052;-65
2022/06/25 21:57:32;;;;;;;8.43;7.47;;;;;;;19.03;100.00;101141.63;10216270;28;20043;-65
2022/06/25 22:02:33;;;;;;;10.35;8.13;;;;;;;19.01;100.00;101133.56;10200309;28;20292;-65
2022/06/25 22:07:34;;;;;;;12.75;8.02;;;;;;;18.97;100.00;101129.72;10215993;28;20039;-65
2022/06/25 22:12:35;;;;;;;9.45;8.52;;;;;;;18.85;100.00;101123.78;10203350;28;20130;-65
2022/06/25 22:17:35;;;;;;;9.88;8.35;;;;;;;18.85;100.00;101129.38;10169405;28;20043;-65
2022/06/25 22:22:35;;;;;;;10.52;8.63;;;;;;;18.79;100.00;101119.41;10214094;28;20043;-65
2022/06/25 22:27:36;;;;;;;15.65;9.70;;;;;;;18.70;100.00;101120.06;10197753;28;20043;-65
2022/06/25 22:32:36;;;;;;;9.93;8.90;;;;;;;18.67;100.00;101117.91;10215354;28;20053;-65
2022/06/25 22:37:39;;;;;;;12.38;8.85;;;;;;;18.67;100.00;101123.47;10216228;28;20113;-65
2022/06/25 22:42:39;;;;;;;14.10;9.02;;;;;;;18.68;100.00;101119.53;10213868;28;20066;-66
2022/06/25 22:47:42;;;;;;;12.25;8.93;;;;;;;18.51;100.00;101100.59;10213671;28;20039;-65
2022/06/25 22:52:43;;;;;;;10.82;9.68;;;;;;;18.53;100.00;101123.41;10215528;28;20455;-66
2022/06/25 22:57:43;;;;;;;12.60;10.63;;;;;;;18.46;100.00;101130.47;10215376;28;20032;-66
2022/06/25 23:02:48;;;;;;;11.88;10.75;;;;;;;18.33;100.00;101119.00;10215065;28;20040;-66
2022/06/25 23:07:49;;;;;;;12.75;10.60;;;;;;;18.28;100.00;101116.25;10213289;28;20123;-66
2022/06/25 23:12:49;;;;;;;15.10;12.27;;;;;;;18.20;100.00;101124.47;10213283;28;20063;-66
2022/06/25 23:17:50;;;;;;;17.42;12.07;;;;;;;18.07;100.00;101120.47;10215152;28;20071;-66
2022/06/25 23:22:50;;;;;;;15.18;13.27;;;;;;;18.01;100.00;101121.66;10211884;28;20043;-66
2022/06/25 23:27:51;;;;;;;17.90;13.35;;;;;;;17.95;100.00;101112.53;10194752;28;20072;-65
2022/06/25 23:32:51;;;;;;;15.75;13.77;;;;;;;17.92;100.00;101115.91;10176485;29;20044;-65
2022/06/25 23:37:52;;;;;;;17.25;15.48;;;;;;;17.86;100.00;101115.16;10185712;28;20039;-66
2022/06/25 23:42:52;;;;;;;22.05;17.77;;;;;;;17.82;100.00;101114.06;10219349;28;20032;-63
2022/06/25 23:47:53;;;;;;;22.08;17.60;;;;;;;17.76;100.00;101115.25;10220080;28;20487;-65
2022/06/25 23:52:54;;;;;;;22.08;18.80;;;;;;;17.69;100.00;101117.53;10192986;29;20532;-66
2022/06/25 23:57:55;;;;;;;22.33;18.35;;;;;;;17.66;100.00;101109.78;10182072;29;20092;-64
